KHTL/HTL METAR and TAF weather

Enter ICAO airport designator
Station Type Date Time Source
KHTL METAR 2020/10/22 02:53 UTC NOAA

KHTL 220253Z AUTO 26004KT 10SM OVC100 07/03 A3023 RMK AO2 SLP246 T00670028 51010


Station Type Date Time Source
KHTL Decoded METAR 2020/10/22 02:53 UTC NOAA

ROSCOMMON COUNTY AIRPORT, MI, United States (KHTL) 44-21N 084-40W 351M
Oct 21, 2020 - 10:53 PM EDT / 2020.10.22 0253 UTC
Wind: from the W (260 degrees) at 5 MPH (4 KT):0
Visibility: 10 mile(s):0
Sky conditions: overcast
Temperature: 44.1 F (6.7 C)
Dew Point: 37.0 F (2.8 C)
Relative Humidity: 76%
Pressure (altimeter): 30.23 in. Hg (1023 hPa)
Pressure tendency: 0.03 inches (1.0 hPa) higher than three hours ago
ob: KHTL 220253Z AUTO 26004KT 10SM OVC100 07/03 A3023 RMK AO2 SLP246 T00670028 51010
cycle: 3

Station Type Date Time Source
KHTL TAF UTC NOAA

Error!

Example: see airport list